sensor_id;sensor_type;location;lat;lon;timestamp;pressure;altitude;pressure_sealevel;temperature;humidity
65718;BME280;52445;52.466;-1.016;2023-04-30T00:00:45;100686.84;;;13.75;62.13
65718;BME280;52445;52.466;-1.016;2023-04-30T00:03:11;100690.28;;;13.74;61.78
65718;BME280;52445;52.466;-1.016;2023-04-30T00:05:38;100687.69;;;13.74;62.30
65718;BME280;52445;52.466;-1.016;2023-04-30T00:08:05;100690.28;;;13.74;61.86
65718;BME280;52445;52.466;-1.016;2023-04-30T00:10:31;100690.34;;;13.71;61.81
65718;BME280;52445;52.466;-1.016;2023-04-30T00:12:58;100686.88;;;13.69;62.45
65718;BME280;52445;52.466;-1.016;2023-04-30T00:15:24;100681.66;;;13.66;62.62
65718;BME280;52445;52.466;-1.016;2023-04-30T00:17:51;100683.44;;;13.64;62.88
65718;BME280;52445;52.466;-1.016;2023-04-30T00:20:18;100683.44;;;13.57;61.99
65718;BME280;52445;52.466;-1.016;2023-04-30T00:22:45;100677.41;;;13.52;62.59
65718;BME280;52445;52.466;-1.016;2023-04-30T00:25:11;100681.75;;;13.44;63.38
65718;BME280;52445;52.466;-1.016;2023-04-30T00:27:38;100680.03;;;13.40;63.80
65718;BME280;52445;52.466;-1.016;2023-04-30T00:30:06;100682.66;;;13.38;63.52
65718;BME280;52445;52.466;-1.016;2023-04-30T00:32:33;100683.53;;;13.32;62.90
65718;BME280;52445;52.466;-1.016;2023-04-30T00:35:00;100683.53;;;13.28;63.54
65718;BME280;52445;52.466;-1.016;2023-04-30T00:37:26;100683.56;;;13.23;63.63
65718;BME280;52445;52.466;-1.016;2023-04-30T00:39:53;100682.72;;;13.21;63.25
65718;BME280;52445;52.466;-1.016;2023-04-30T00:42:20;100681.84;;;13.19;63.15
65718;BME280;52445;52.466;-1.016;2023-04-30T00:44:47;100680.13;;;13.18;63.13
65718;BME280;52445;52.466;-1.016;2023-04-30T00:47:14;100686.19;;;13.15;64.19
65718;BME280;52445;52.466;-1.016;2023-04-30T00:49:40;100681.00;;;13.10;64.29
65718;BME280;52445;52.466;-1.016;2023-04-30T00:52:07;100687.09;;;13.09;64.47
65718;BME280;52445;52.466;-1.016;2023-04-30T00:54:34;100684.47;;;13.09;63.51
65718;BME280;52445;52.466;-1.016;2023-04-30T00:57:02;100683.59;;;13.06;63.87
65718;BME280;52445;52.466;-1.016;2023-04-30T00:59:30;100684.50;;;13.02;64.04
65718;BME280;52445;52.466;-1.016;2023-04-30T01:01:58;100684.53;;;12.97;64.42
65718;BME280;52445;52.466;-1.016;2023-04-30T01:04:25;100688.84;;;12.95;64.61
65718;BME280;52445;52.466;-1.016;2023-04-30T01:06:52;100687.13;;;12.94;65.32
65718;BME280;52445;52.466;-1.016;2023-04-30T01:09:19;100685.41;;;12.90;65.00
65718;BME280;52445;52.466;-1.016;2023-04-30T01:20:11;100685.41;;;12.80;66.56
65718;BME280;52445;52.466;-1.016;2023-04-30T01:23:03;100675.88;;;12.75;66.13
65718;BME280;52445;52.466;-1.016;2023-04-30T01:28:17;100687.16;;;12.75;66.73
65718;BME280;52445;52.466;-1.016;2023-04-30T01:30:45;100678.47;;;12.73;67.46
65718;BME280;52445;52.466;-1.016;2023-04-30T01:33:12;100672.44;;;12.69;67.56
65718;BME280;52445;52.466;-1.016;2023-04-30T01:44:15;100681.97;;;12.63;67.99
65718;BME280;52445;52.466;-1.016;2023-04-30T01:46:57;100681.97;;;12.66;67.83
65718;BME280;52445;52.466;-1.016;2023-04-30T01:52:12;100675.91;;;12.62;69.08
65718;BME280;52445;52.466;-1.016;2023-04-30T01:54:44;100677.63;;;12.46;68.81
65718;BME280;52445;52.466;-1.016;2023-04-30T01:57:25;100673.31;;;12.53;68.56
65718;BME280;52445;52.466;-1.016;2023-04-30T01:59:53;100673.31;;;12.51;68.99
65718;BME280;52445;52.466;-1.016;2023-04-30T02:02:20;100673.31;;;12.51;68.14
65718;BME280;52445;52.466;-1.016;2023-04-30T02:04:47;100672.44;;;12.51;68.25
65718;BME280;52445;52.466;-1.016;2023-04-30T02:07:23;100676.78;;;12.45;69.21
65718;BME280;52445;52.466;-1.016;2023-04-30T02:09:54;100680.25;;;12.44;68.65
65718;BME280;52445;52.466;-1.016;2023-04-30T02:12:21;100677.66;;;12.41;69.34
65718;BME280;52445;52.466;-1.016;2023-04-30T02:14:48;100678.53;;;12.39;69.09
65718;BME280;52445;52.466;-1.016;2023-04-30T02:17:14;100676.78;;;12.34;69.24
65718;BME280;52445;52.466;-1.016;2023-04-30T02:19:41;100679.38;;;12.31;68.48
65718;BME280;52445;52.466;-1.016;2023-04-30T02:22:07;100681.97;;;12.28;68.21
65718;BME280;52445;52.466;-1.016;2023-04-30T02:24:35;100671.56;;;12.22;69.65
65718;BME280;52445;52.466;-1.016;2023-04-30T02:27:01;100680.25;;;12.21;69.65
65718;BME280;52445;52.466;-1.016;2023-04-30T02:29:28;100675.91;;;12.17;69.00
65718;BME280;52445;52.466;-1.016;2023-04-30T02:31:57;100676.78;;;12.13;69.64
65718;BME280;52445;52.466;-1.016;2023-04-30T02:34:24;100682.84;;;12.08;69.47
65718;BME280;52445;52.466;-1.016;2023-04-30T02:36:51;100674.16;;;12.06;69.47
65718;BME280;52445;52.466;-1.016;2023-04-30T02:39:17;100677.59;;;12.04;68.90
65718;BME280;52445;52.466;-1.016;2023-04-30T02:41:44;100671.53;;;12.00;69.65
65718;BME280;52445;52.466;-1.016;2023-04-30T02:44:11;100678.47;;;12.01;68.65
65718;BME280;52445;52.466;-1.016;2023-04-30T02:46:37;100674.13;;;12.00;69.46
65718;BME280;52445;52.466;-1.016;2023-04-30T02:49:04;100682.78;;;11.99;69.63
65718;BME280;52445;52.466;-1.016;2023-04-30T02:51:31;100682.78;;;12.01;68.45
65718;BME280;52445;52.466;-1.016;2023-04-30T02:53:58;100681.06;;;12.00;69.61
65718;BME280;52445;52.466;-1.016;2023-04-30T02:56:24;100681.94;;;12.00;69.21
65718;BME280;52445;52.466;-1.016;2023-04-30T02:58:51;100680.19;;;11.99;69.33
65718;BME280;52445;52.466;-1.016;2023-04-30T03:01:18;100685.38;;;11.96;68.76
65718;BME280;52445;52.466;-1.016;2023-04-30T03:03:44;100689.69;;;11.94;69.40
65718;BME280;52445;52.466;-1.016;2023-04-30T03:06:11;100684.50;;;11.86;69.66
65718;BME280;52445;52.466;-1.016;2023-04-30T03:08:38;100694.03;;;11.89;69.05
65718;BME280;52445;52.466;-1.016;2023-04-30T03:11:04;100692.28;;;11.85;69.12
65718;BME280;52445;52.466;-1.016;2023-04-30T03:13:31;100692.28;;;11.81;68.93
65718;BME280;52445;52.466;-1.016;2023-04-30T03:15:58;100698.31;;;11.82;68.82
65718;BME280;52445;52.466;-1.016;2023-04-30T03:18:27;100693.97;;;11.79;68.49
65718;BME280;52445;52.466;-1.016;2023-04-30T03:20:54;100691.38;;;11.79;68.49
65718;BME280;52445;52.466;-1.016;2023-04-30T03:23:20;100693.13;;;11.79;67.61
65718;BME280;52445;52.466;-1.016;2023-04-30T03:25:47;100692.28;;;11.81;67.88
65718;BME280;52445;52.466;-1.016;2023-04-30T03:28:14;100687.06;;;11.81;67.98
65718;BME280;52445;52.466;-1.016;2023-04-30T03:30:41;100685.34;;;11.80;68.92
65718;BME280;52445;52.466;-1.016;2023-04-30T03:33:07;100686.22;;;11.82;68.36
65718;BME280;52445;52.466;-1.016;2023-04-30T03:35:34;100678.44;;;11.86;67.70
65718;BME280;52445;52.466;-1.016;2023-04-30T03:38:01;100684.47;;;11.88;68.36
65718;BME280;52445;52.466;-1.016;2023-04-30T03:40:27;100676.72;;;11.91;68.88
65718;BME280;52445;52.466;-1.016;2023-04-30T03:42:54;100683.66;;;11.92;68.79
65718;BME280;52445;52.466;-1.016;2023-04-30T03:45:21;100672.38;;;11.91;67.38
65718;BME280;52445;52.466;-1.016;2023-04-30T03:47:49;100675.84;;;11.93;68.50
65718;BME280;52445;52.466;-1.016;2023-04-30T03:50:17;100672.38;;;11.91;67.52
65718;BME280;52445;52.466;-1.016;2023-04-30T03:52:44;100674.97;;;11.87;67.94
65718;BME280;52445;52.466;-1.016;2023-04-30T03:55:11;100685.34;;;11.83;67.86
65718;BME280;52445;52.466;-1.016;2023-04-30T03:57:38;100685.34;;;11.80;68.17
65718;BME280;52445;52.466;-1.016;2023-04-30T04:00:07;100678.41;;;11.79;68.35
65718;BME280;52445;52.466;-1.016;2023-04-30T04:02:36;100680.16;;;11.77;67.88
65718;BME280;52445;52.466;-1.016;2023-04-30T04:05:03;100680.16;;;11.77;68.58
65718;BME280;52445;52.466;-1.016;2023-04-30T04:07:30;100682.75;;;11.76;67.32
65718;BME280;52445;52.466;-1.016;2023-04-30T04:09:56;100682.72;;;11.73;68.58
65718;BME280;52445;52.466;-1.016;2023-04-30T04:12:23;100685.31;;;11.71;67.66
65718;BME280;52445;52.466;-1.016;2023-04-30T04:14:50;100679.28;;;11.70;67.64
65718;BME280;52445;52.466;-1.016;2023-04-30T04:17:16;100675.81;;;11.70;68.17
65718;BME280;52445;52.466;-1.016;2023-04-30T04:19:43;100684.44;;;11.67;68.58
65718;BME280;52445;52.466;-1.016;2023-04-30T04:22:09;100685.31;;;11.65;67.39
65718;BME280;52445;52.466;-1.016;2023-04-30T04:24:36;100675.78;;;11.64;68.87
65718;BME280;52445;52.466;-1.016;2023-04-30T04:27:03;100676.66;;;11.63;68.23
65718;BME280;52445;52.466;-1.016;2023-04-30T04:29:31;100681.84;;;11.63;68.27
65718;BME280;52445;52.466;-1.016;2023-04-30T04:31:58;100685.28;;;11.59;67.61
65718;BME280;52445;52.466;-1.016;2023-04-30T04:34:26;100686.16;;;11.56;68.03
65718;BME280;52445;52.466;-1.016;2023-04-30T04:36:52;100688.72;;;11.54;68.46
65718;BME280;52445;52.466;-1.016;2023-04-30T04:39:19;100690.44;;;11.49;68.38
65718;BME280;52445;52.466;-1.016;2023-04-30T04:41:45;100680.91;;;11.48;68.89
65718;BME280;52445;52.466;-1.016;2023-04-30T04:44:12;100684.38;;;11.49;68.76
65718;BME280;52445;52.466;-1.016;2023-04-30T04:46:38;100684.38;;;11.46;68.50
65718;BME280;52445;52.466;-1.016;2023-04-30T04:49:07;100669.63;;;11.38;68.69
65718;BME280;52445;52.466;-1.016;2023-04-30T04:51:34;100674.81;;;11.34;69.29
65718;BME280;52445;52.466;-1.016;2023-04-30T04:54:01;100680.84;;;11.32;68.85
65718;BME280;52445;52.466;-1.016;2023-04-30T04:56:27;100681.72;;;11.31;68.95
65718;BME280;52445;52.466;-1.016;2023-04-30T04:58:54;100685.19;;;11.30;67.90
65718;BME280;52445;52.466;-1.016;2023-04-30T05:01:21;100679.97;;;11.27;68.34
65718;BME280;52445;52.466;-1.016;2023-04-30T05:03:47;100683.44;;;11.26;68.61
65718;BME280;52445;52.466;-1.016;2023-04-30T05:06:16;100687.75;;;11.27;68.63
65718;BME280;52445;52.466;-1.016;2023-04-30T05:08:43;100689.47;;;11.27;67.78
65718;BME280;52445;52.466;-1.016;2023-04-30T05:11:10;100692.06;;;11.25;67.65
65718;BME280;52445;52.466;-1.016;2023-04-30T05:13:40;100686.84;;;11.16;68.71
65718;BME280;52445;52.466;-1.016;2023-04-30T05:16:07;100686.81;;;11.14;68.41
65718;BME280;52445;52.466;-1.016;2023-04-30T05:18:34;100685.09;;;11.12;68.84
65718;BME280;52445;52.466;-1.016;2023-04-30T05:21:00;100685.91;;;11.06;69.33
65718;BME280;52445;52.466;-1.016;2023-04-30T05:23:27;100685.00;;;11.02;69.42
65718;BME280;52445;52.466;-1.016;2023-04-30T05:25:53;100683.28;;;10.95;68.58
65718;BME280;52445;52.466;-1.016;2023-04-30T05:28:20;100687.59;;;11.02;68.29
65718;BME280;52445;52.466;-1.016;2023-04-30T05:30:47;100685.06;;;11.09;68.63
65718;BME280;52445;52.466;-1.016;2023-04-30T05:33:13;100684.22;;;11.14;68.69
65718;BME280;52445;52.466;-1.016;2023-04-30T05:35:40;100696.38;;;11.23;68.32
65718;BME280;52445;52.466;-1.016;2023-04-30T05:38:07;100695.53;;;11.26;67.81
65718;BME280;52445;52.466;-1.016;2023-04-30T05:40:34;100691.19;;;11.29;67.51
65718;BME280;52445;52.466;-1.016;2023-04-30T05:43:01;100690.38;;;11.37;67.92
65718;BME280;52445;52.466;-1.016;2023-04-30T05:45:27;100689.56;;;11.46;67.49
65718;BME280;52445;52.466;-1.016;2023-04-30T05:47:54;100692.16;;;11.49;68.27
65718;BME280;52445;52.466;-1.016;2023-04-30T05:50:21;100692.19;;;11.50;67.49
65718;BME280;52445;52.466;-1.016;2023-04-30T05:52:48;100694.78;;;11.52;68.24
65718;BME280;52445;52.466;-1.016;2023-04-30T05:55:14;100694.78;;;11.50;67.37
65718;BME280;52445;52.466;-1.016;2023-04-30T05:57:41;100694.75;;;11.49;67.44
65718;BME280;52445;52.466;-1.016;2023-04-30T06:00:08;100693.91;;;11.51;68.46
65718;BME280;52445;52.466;-1.016;2023-04-30T06:02:34;100690.44;;;11.52;67.24
65718;BME280;52445;52.466;-1.016;2023-04-30T06:05:01;100698.22;;;11.54;67.40
65718;BME280;52445;52.466;-1.016;2023-04-30T06:07:28;100696.53;;;11.56;67.45
65718;BME280;52445;52.466;-1.016;2023-04-30T06:09:56;100700.00;;;11.61;68.36
65718;BME280;52445;52.466;-1.016;2023-04-30T06:12:22;100702.59;;;11.66;67.69
65718;BME280;52445;52.466;-1.016;2023-04-30T06:14:50;100699.16;;;11.73;68.01
65718;BME280;52445;52.466;-1.016;2023-04-30T06:17:17;100697.47;;;11.80;67.24
65718;BME280;52445;52.466;-1.016;2023-04-30T06:19:44;100706.13;;;11.90;67.23
65718;BME280;52445;52.466;-1.016;2023-04-30T06:22:11;100706.13;;;11.99;66.97
65718;BME280;52445;52.466;-1.016;2023-04-30T06:24:38;100699.28;;;12.07;67.11
65718;BME280;52445;52.466;-1.016;2023-04-30T06:27:04;100704.47;;;12.14;67.19
65718;BME280;52445;52.466;-1.016;2023-04-30T06:29:31;100706.22;;;12.24;67.82
65718;BME280;52445;52.466;-1.016;2023-04-30T06:31:58;100704.47;;;12.42;67.01
65718;BME280;52445;52.466;-1.016;2023-04-30T06:34:25;100707.06;;;12.56;66.81
65718;BME280;52445;52.466;-1.016;2023-04-30T06:36:52;100713.16;;;12.63;66.78
65718;BME280;52445;52.466;-1.016;2023-04-30T06:39:18;100711.41;;;12.65;67.31
65718;BME280;52445;52.466;-1.016;2023-04-30T06:41:45;100715.75;;;12.66;66.82
65718;BME280;52445;52.466;-1.016;2023-04-30T06:44:12;100710.56;;;12.61;65.91
65718;BME280;52445;52.466;-1.016;2023-04-30T06:46:39;100706.25;;;12.58;65.81
65718;BME280;52445;52.466;-1.016;2023-04-30T06:49:06;100702.75;;;12.56;65.58
65718;BME280;52445;52.466;-1.016;2023-04-30T06:51:33;100707.94;;;12.56;66.35
65718;BME280;52445;52.466;-1.016;2023-04-30T06:53:59;100703.63;;;12.58;66.87
65718;BME280;52445;52.466;-1.016;2023-04-30T06:56:26;100704.50;;;12.67;67.02
65718;BME280;52445;52.466;-1.016;2023-04-30T06:58:53;100708.78;;;12.94;65.95
65718;BME280;52445;52.466;-1.016;2023-04-30T07:01:19;100703.47;;;13.38;65.77
65718;BME280;52445;52.466;-1.016;2023-04-30T07:03:46;100702.38;;;13.91;65.43
65718;BME280;52445;52.466;-1.016;2023-04-30T07:06:13;100704.72;;;14.25;64.25
65718;BME280;52445;52.466;-1.016;2023-04-30T07:08:40;100705.25;;;14.68;65.10
65718;BME280;52445;52.466;-1.016;2023-04-30T07:11:06;100706.72;;;15.00;63.34
65718;BME280;52445;52.466;-1.016;2023-04-30T07:13:33;100708.28;;;15.16;62.49
65718;BME280;52445;52.466;-1.016;2023-04-30T07:16:00;100701.25;;;15.22;62.46
65718;BME280;52445;52.466;-1.016;2023-04-30T07:18:27;100714.13;;;15.36;62.36
65718;BME280;52445;52.466;-1.016;2023-04-30T07:20:53;100710.38;;;15.57;61.75
65718;BME280;52445;52.466;-1.016;2023-04-30T07:23:20;100703.91;;;15.86;60.69
65718;BME280;52445;52.466;-1.016;2023-04-30T07:25:47;100707.75;;;16.23;60.22
65718;BME280;52445;52.466;-1.016;2023-04-30T07:28:14;100704.63;;;16.56;59.74
65718;BME280;52445;52.466;-1.016;2023-04-30T07:30:41;100699.66;;;16.89;59.49
65718;BME280;52445;52.466;-1.016;2023-04-30T07:33:08;100700.13;;;17.13;59.01
65718;BME280;52445;52.466;-1.016;2023-04-30T07:35:35;100698.88;;;17.33;57.83
65718;BME280;52445;52.466;-1.016;2023-04-30T07:38:01;100708.75;;;17.61;58.05
65718;BME280;52445;52.466;-1.016;2023-04-30T07:40:30;100705.38;;;17.95;57.50
65718;BME280;52445;52.466;-1.016;2023-04-30T07:43:02;100704.81;;;18.20;57.56
65718;BME280;52445;52.466;-1.016;2023-04-30T07:45:30;100704.06;;;18.52;56.47
65718;BME280;52445;52.466;-1.016;2023-04-30T07:47:57;100704.56;;;18.66;54.93
65718;BME280;52445;52.466;-1.016;2023-04-30T07:50:23;100698.47;;;18.66;55.49
65718;BME280;52445;52.466;-1.016;2023-04-30T07:52:50;100699.72;;;18.84;55.89
65718;BME280;52445;52.466;-1.016;2023-04-30T07:55:17;100703.53;;;19.07;54.99
65718;BME280;52445;52.466;-1.016;2023-04-30T07:57:43;100699.38;;;19.30;53.73
65718;BME280;52445;52.466;-1.016;2023-04-30T08:00:10;100701.16;;;19.29;52.62
65718;BME280;52445;52.466;-1.016;2023-04-30T08:02:37;100705.28;;;19.38;52.37
65718;BME280;52445;52.466;-1.016;2023-04-30T08:05:04;100707.69;;;19.46;52.44
65718;BME280;52445;52.466;-1.016;2023-04-30T08:07:31;100706.34;;;19.61;53.55
65718;BME280;52445;52.466;-1.016;2023-04-30T08:09:58;100713.81;;;19.75;52.59
65718;BME280;52445;52.466;-1.016;2023-04-30T08:12:24;100709.91;;;19.88;52.20
65718;BME280;52445;52.466;-1.016;2023-04-30T08:14:59;100712.22;;;19.99;51.16
65718;BME280;52445;52.466;-1.016;2023-04-30T08:17:25;100709.03;;;19.88;50.64
65718;BME280;52445;52.466;-1.016;2023-04-30T08:19:52;100710.47;;;19.70;50.78
65718;BME280;52445;52.466;-1.016;2023-04-30T08:22:19;100705.47;;;19.62;51.63
65718;BME280;52445;52.466;-1.016;2023-04-30T08:24:46;100705.56;;;19.59;51.54
65718;BME280;52445;52.466;-1.016;2023-04-30T08:27:12;100712.69;;;19.53;51.95
65718;BME280;52445;52.466;-1.016;2023-04-30T08:29:39;100706.50;;;19.26;50.80
65718;BME280;52445;52.466;-1.016;2023-04-30T08:32:06;100712.28;;;19.07;51.81
65718;BME280;52445;52.466;-1.016;2023-04-30T08:34:33;100704.34;;;19.09;51.66
65718;BME280;52445;52.466;-1.016;2023-04-30T08:37:00;100700.63;;;19.18;51.93
65718;BME280;52445;52.466;-1.016;2023-04-30T08:39:26;100705.00;;;19.17;51.94
65718;BME280;52445;52.466;-1.016;2023-04-30T08:41:54;100692.72;;;19.18;51.44
65718;BME280;52445;52.466;-1.016;2023-04-30T08:44:22;100697.88;;;19.21;50.92
65718;BME280;52445;52.466;-1.016;2023-04-30T08:46:52;100697.44;;;19.36;50.95
65718;BME280;52445;52.466;-1.016;2023-04-30T08:49:21;100701.31;;;19.55;50.77
65718;BME280;52445;52.466;-1.016;2023-04-30T08:51:50;100704.72;;;19.57;50.00
65718;BME280;52445;52.466;-1.016;2023-04-30T08:54:18;100703.47;;;19.40;49.41
65718;BME280;52445;52.466;-1.016;2023-04-30T08:56:45;100696.59;;;19.36;49.91
65718;BME280;52445;52.466;-1.016;2023-04-30T08:59:12;100699.66;;;19.20;49.12
65718;BME280;52445;52.466;-1.016;2023-04-30T09:01:40;100696.34;;;19.13;50.13
65718;BME280;52445;52.466;-1.016;2023-04-30T09:04:07;100687.00;;;19.01;50.11
65718;BME280;52445;52.466;-1.016;2023-04-30T09:06:33;100696.25;;;18.83;50.12
65718;BME280;52445;52.466;-1.016;2023-04-30T09:09:10;100698.19;;;18.77;50.20
65718;BME280;52445;52.466;-1.016;2023-04-30T09:11:37;100695.47;;;18.80;50.84
65718;BME280;52445;52.466;-1.016;2023-04-30T09:14:04;100687.59;;;18.80;51.18
65718;BME280;52445;52.466;-1.016;2023-04-30T09:22:18;100682.94;;;18.58;51.71
65718;BME280;52445;52.466;-1.016;2023-04-30T09:24:46;100677.50;;;18.64;51.31
65718;BME280;52445;52.466;-1.016;2023-04-30T09:27:16;100676.84;;;18.56;50.83
65718;BME280;52445;52.466;-1.016;2023-04-30T09:29:43;100685.69;;;18.52;50.60
65718;BME280;52445;52.466;-1.016;2023-04-30T09:32:11;100682.63;;;18.35;50.85
65718;BME280;52445;52.466;-1.016;2023-04-30T09:34:39;100680.16;;;18.29;51.22
65718;BME280;52445;52.466;-1.016;2023-04-30T09:37:06;100680.56;;;18.12;50.64
65718;BME280;52445;52.466;-1.016;2023-04-30T09:39:33;100683.31;;;18.04;50.71
65718;BME280;52445;52.466;-1.016;2023-04-30T09:42:08;100680.00;;;17.97;51.52
65718;BME280;52445;52.466;-1.016;2023-04-30T09:44:40;100676.59;;;17.94;51.27
65718;BME280;52445;52.466;-1.016;2023-04-30T09:49:50;100661.31;;;18.13;50.91
65718;BME280;52445;52.466;-1.016;2023-04-30T09:52:19;100669.47;;;17.99;51.85
65718;BME280;52445;52.466;-1.016;2023-04-30T09:54:46;100666.84;;;17.99;51.48
65718;BME280;52445;52.466;-1.016;2023-04-30T09:57:14;100670.47;;;17.93;52.28
65718;BME280;52445;52.466;-1.016;2023-04-30T09:59:44;100670.41;;;17.96;52.16
65718;BME280;52445;52.466;-1.016;2023-04-30T10:02:14;100668.53;;;18.02;52.04
65718;BME280;52445;52.466;-1.016;2023-04-30T10:04:42;100669.34;;;18.05;52.13
65718;BME280;52445;52.466;-1.016;2023-04-30T10:07:14;100663.28;;;18.02;52.45
65718;BME280;52445;52.466;-1.016;2023-04-30T10:12:23;100651.75;;;18.10;52.92
65718;BME280;52445;52.466;-1.016;2023-04-30T10:14:54;100656.56;;;17.91;52.71
65718;BME280;52445;52.466;-1.016;2023-04-30T10:17:26;100659.16;;;17.93;52.92
65718;BME280;52445;52.466;-1.016;2023-04-30T10:19:56;100659.22;;;17.90;52.53
65718;BME280;52445;52.466;-1.016;2023-04-30T10:22:27;100658.16;;;17.98;52.40
65718;BME280;52445;52.466;-1.016;2023-04-30T10:24:55;100648.16;;;18.15;52.04
65718;BME280;52445;52.466;-1.016;2023-04-30T10:27:22;100656.44;;;18.34;51.38
65718;BME280;52445;52.466;-1.016;2023-04-30T10:29:49;100656.63;;;18.61;51.86
65718;BME280;52445;52.466;-1.016;2023-04-30T10:32:17;100649.19;;;18.77;51.96
65718;BME280;52445;52.466;-1.016;2023-04-30T10:37:29;100646.94;;;18.63;51.37
65718;BME280;52445;52.466;-1.016;2023-04-30T10:39:56;100650.84;;;18.48;51.73
65718;BME280;52445;52.466;-1.016;2023-04-30T10:42:23;100655.03;;;18.55;51.97
65718;BME280;52445;52.466;-1.016;2023-04-30T10:44:50;100648.22;;;18.48;51.93
65718;BME280;52445;52.466;-1.016;2023-04-30T10:47:17;100642.22;;;18.43;51.53
65718;BME280;52445;52.466;-1.016;2023-04-30T10:49:45;100646.69;;;18.39;51.80
65718;BME280;52445;52.466;-1.016;2023-04-30T10:52:13;100647.59;;;18.38;52.21
65718;BME280;52445;52.466;-1.016;2023-04-30T10:54:51;100642.16;;;18.44;52.50
65718;BME280;52445;52.466;-1.016;2023-04-30T10:57:19;100643.16;;;18.40;51.96
65718;BME280;52445;52.466;-1.016;2023-04-30T11:02:38;100640.25;;;18.16;51.59
65718;BME280;52445;52.466;-1.016;2023-04-30T11:07:50;100638.16;;;18.31;52.63
65718;BME280;52445;52.466;-1.016;2023-04-30T11:10:22;100637.91;;;18.40;52.51
65718;BME280;52445;52.466;-1.016;2023-04-30T11:12:50;100625.22;;;18.58;52.17
65718;BME280;52445;52.466;-1.016;2023-04-30T11:15:19;100624.63;;;18.80;52.83
65718;BME280;52445;52.466;-1.016;2023-04-30T11:17:48;100629.22;;;19.03;52.37
65718;BME280;52445;52.466;-1.016;2023-04-30T11:20:20;100614.28;;;19.05;51.18
65718;BME280;52445;52.466;-1.016;2023-04-30T11:23:07;100620.66;;;18.96;50.49
65718;BME280;52445;52.466;-1.016;2023-04-30T11:25:41;100613.69;;;18.95;50.26
65718;BME280;52445;52.466;-1.016;2023-04-30T11:28:14;100612.66;;;19.01;51.01
65718;BME280;52445;52.466;-1.016;2023-04-30T11:30:58;100618.25;;;19.20;51.88
65718;BME280;52445;52.466;-1.016;2023-04-30T11:33:27;100607.38;;;19.33;51.07
65718;BME280;52445;52.466;-1.016;2023-04-30T11:35:55;100605.75;;;19.29;50.31
65718;BME280;52445;52.466;-1.016;2023-04-30T11:38:27;100611.00;;;19.29;50.73
65718;BME280;52445;52.466;-1.016;2023-04-30T11:40:56;100609.75;;;19.12;50.10
65718;BME280;52445;52.466;-1.016;2023-04-30T11:43:26;100601.97;;;19.09;49.72
65718;BME280;52445;52.466;-1.016;2023-04-30T11:46:14;100606.38;;;19.07;51.59
65718;BME280;52445;52.466;-1.016;2023-04-30T11:48:44;100598.78;;;19.27;51.37
65718;BME280;52445;52.466;-1.016;2023-04-30T11:53:49;100599.63;;;19.85;52.42
65718;BME280;52445;52.466;-1.016;2023-04-30T11:56:18;100604.56;;;19.95;51.62
65718;BME280;52445;52.466;-1.016;2023-04-30T11:58:47;100597.97;;;20.10;50.83
65718;BME280;52445;52.466;-1.016;2023-04-30T12:01:15;100599.03;;;20.04;50.41
65718;BME280;52445;52.466;-1.016;2023-04-30T12:03:43;100596.41;;;20.04;50.43
65718;BME280;52445;52.466;-1.016;2023-04-30T12:06:11;100601.53;;;20.09;50.47
65718;BME280;52445;52.466;-1.016;2023-04-30T12:08:40;100596.03;;;20.15;50.32
65718;BME280;52445;52.466;-1.016;2023-04-30T12:11:18;100585.84;;;20.31;50.65
65718;BME280;52445;52.466;-1.016;2023-04-30T12:13:50;100586.28;;;20.44;49.39
65718;BME280;52445;52.466;-1.016;2023-04-30T12:16:17;100586.28;;;20.44;49.37
65718;BME280;52445;52.466;-1.016;2023-04-30T12:18:46;100588.44;;;20.33;48.99
65718;BME280;52445;52.466;-1.016;2023-04-30T12:21:13;100587.63;;;20.31;49.29
65718;BME280;52445;52.466;-1.016;2023-04-30T12:23:40;100585.53;;;20.15;48.73
65718;BME280;52445;52.466;-1.016;2023-04-30T12:26:07;100591.19;;;20.02;48.64
65718;BME280;52445;52.466;-1.016;2023-04-30T12:28:33;100586.34;;;19.90;48.79
65718;BME280;52445;52.466;-1.016;2023-04-30T12:31:00;100590.16;;;19.80;48.60
65718;BME280;52445;52.466;-1.016;2023-04-30T12:33:29;100588.63;;;19.72;48.98
65718;BME280;52445;52.466;-1.016;2023-04-30T12:35:56;100589.03;;;19.60;48.93
65718;BME280;52445;52.466;-1.016;2023-04-30T12:38:24;100585.53;;;19.59;48.81
65718;BME280;52445;52.466;-1.016;2023-04-30T12:40:51;100574.91;;;19.64;49.03
65718;BME280;52445;52.466;-1.016;2023-04-30T12:43:19;100576.81;;;19.59;48.58
65718;BME280;52445;52.466;-1.016;2023-04-30T12:45:49;100567.06;;;19.62;48.86
65718;BME280;52445;52.466;-1.016;2023-04-30T12:48:22;100559.22;;;19.61;48.15
65718;BME280;52445;52.466;-1.016;2023-04-30T12:53:28;100564.56;;;19.58;48.47
65718;BME280;52445;52.466;-1.016;2023-04-30T12:56:07;100566.72;;;19.46;48.66
65718;BME280;52445;52.466;-1.016;2023-04-30T12:58:35;100561.91;;;19.31;48.98
65718;BME280;52445;52.466;-1.016;2023-04-30T13:01:04;100569.28;;;19.19;48.94
65718;BME280;52445;52.466;-1.016;2023-04-30T13:03:31;100571.72;;;19.25;49.51
65718;BME280;52445;52.466;-1.016;2023-04-30T13:05:58;100577.81;;;19.26;49.62
65718;BME280;52445;52.466;-1.016;2023-04-30T13:08:27;100567.41;;;19.23;49.49
65718;BME280;52445;52.466;-1.016;2023-04-30T13:10:53;100571.97;;;19.18;49.38
65718;BME280;52445;52.466;-1.016;2023-04-30T13:13:20;100573.09;;;19.09;49.77
65718;BME280;52445;52.466;-1.016;2023-04-30T13:15:46;100579.38;;;19.01;49.67
65718;BME280;52445;52.466;-1.016;2023-04-30T13:18:13;100576.75;;;19.01;50.13
65718;BME280;52445;52.466;-1.016;2023-04-30T13:20:42;100567.94;;;19.04;50.03
65718;BME280;52445;52.466;-1.016;2023-04-30T13:23:10;100565.31;;;19.04;50.44
65718;BME280;52445;52.466;-1.016;2023-04-30T13:25:39;100572.56;;;18.96;50.37
65718;BME280;52445;52.466;-1.016;2023-04-30T13:28:05;100557.19;;;18.83;50.59
65718;BME280;52445;52.466;-1.016;2023-04-30T13:30:32;100557.53;;;18.71;50.81